sensor_id;sensor_type;location;lat;lon;timestamp;pressure;altitude;pressure_sealevel;temperature;humidity
66385;BME280;53426;55.872;37.462;2024-01-10T00:00:01;97983.59;;;-1.31;83.55
66385;BME280;53426;55.872;37.462;2024-01-10T00:02:31;97977.63;;;-1.31;83.63
66385;BME280;53426;55.872;37.462;2024-01-10T00:04:58;97972.41;;;-1.31;83.56
66385;BME280;53426;55.872;37.462;2024-01-10T00:07:25;97944.69;;;-1.45;83.89
66385;BME280;53426;55.872;37.462;2024-01-10T00:09:51;97976.19;;;-1.22;83.98
66385;BME280;53426;55.872;37.462;2024-01-10T00:12:16;97974.53;;;-1.23;83.43
66385;BME280;53426;55.872;37.462;2024-01-10T00:14:44;97964.50;;;-1.30;84.10
66385;BME280;53426;55.872;37.462;2024-01-10T00:17:09;97945.63;;;-1.32;83.96
66385;BME280;53426;55.872;37.462;2024-01-10T00:22:39;97906.88;;;-1.49;84.00
66385;BME280;53426;55.872;37.462;2024-01-10T00:25:05;97961.13;;;-1.03;84.39
66385;BME280;53426;55.872;37.462;2024-01-10T00:27:31;97955.78;;;-1.00;84.04
66385;BME280;53426;55.872;37.462;2024-01-10T00:29:57;97959.09;;;-0.98;84.52
66385;BME280;53426;55.872;37.462;2024-01-10T00:32:22;97952.63;;;-1.05;83.73
66385;BME280;53426;55.872;37.462;2024-01-10T00:34:48;97972.06;;;-0.98;83.73
66385;BME280;53426;55.872;37.462;2024-01-10T00:37:15;97942.97;;;-1.03;84.06
66385;BME280;53426;55.872;37.462;2024-01-10T00:39:41;97962.25;;;-0.93;83.69
66385;BME280;53426;55.872;37.462;2024-01-10T00:42:07;97973.06;;;-0.87;83.49
66385;BME280;53426;55.872;37.462;2024-01-10T00:44:33;97962.59;;;-0.85;83.65
66385;BME280;53426;55.872;37.462;2024-01-10T00:46:59;97960.59;;;-0.94;83.36
66385;BME280;53426;55.872;37.462;2024-01-10T00:49:26;97989.13;;;-0.80;82.99
66385;BME280;53426;55.872;37.462;2024-01-10T00:51:52;97983.75;;;-0.77;83.12
66385;BME280;53426;55.872;37.462;2024-01-10T00:54:18;97981.88;;;-0.75;83.40
66385;BME280;53426;55.872;37.462;2024-01-10T00:56:44;97961.31;;;-0.92;83.26
66385;BME280;53426;55.872;37.462;2024-01-10T00:59:10;97975.50;;;-0.83;82.97
66385;BME280;53426;55.872;37.462;2024-01-10T01:01:36;97989.56;;;-0.73;83.11
66385;BME280;53426;55.872;37.462;2024-01-10T01:04:02;97997.28;;;-0.72;82.76
66385;BME280;53426;55.872;37.462;2024-01-10T01:06:28;97969.16;;;-0.79;82.76
66385;BME280;53426;55.872;37.462;2024-01-10T01:08:54;97998.13;;;-0.71;82.94
66385;BME280;53426;55.872;37.462;2024-01-10T01:11:20;97995.00;;;-0.64;83.00
66385;BME280;53426;55.872;37.462;2024-01-10T01:13:46;98004.47;;;-0.63;82.93
66385;BME280;53426;55.872;37.462;2024-01-10T01:16:12;98014.13;;;-0.65;83.17
66385;BME280;53426;55.872;37.462;2024-01-10T01:18:38;98007.28;;;-0.66;83.33
66385;BME280;53426;55.872;37.462;2024-01-10T01:21:05;98006.84;;;-0.72;83.67
66385;BME280;53426;55.872;37.462;2024-01-10T01:23:31;98022.97;;;-0.67;83.49
66385;BME280;53426;55.872;37.462;2024-01-10T01:25:57;98019.38;;;-0.79;83.96
66385;BME280;53426;55.872;37.462;2024-01-10T01:28:23;98036.56;;;-0.76;84.35
66385;BME280;53426;55.872;37.462;2024-01-10T01:30:49;98038.31;;;-0.77;84.50
66385;BME280;53426;55.872;37.462;2024-01-10T01:33:15;98046.75;;;-0.73;84.43
66385;BME280;53426;55.872;37.462;2024-01-10T01:35:41;98044.06;;;-0.72;84.50
66385;BME280;53426;55.872;37.462;2024-01-10T01:38:07;98043.09;;;-0.71;84.08
66385;BME280;53426;55.872;37.462;2024-01-10T01:40:33;98024.94;;;-0.85;83.53
66385;BME280;53426;55.872;37.462;2024-01-10T01:42:59;98048.25;;;-0.83;82.92
66385;BME280;53426;55.872;37.462;2024-01-10T01:45:25;98037.75;;;-0.96;82.13
66385;BME280;53426;55.872;37.462;2024-01-10T01:47:50;98072.28;;;-0.94;81.60
66385;BME280;53426;55.872;37.462;2024-01-10T01:50:18;98092.88;;;-0.91;80.41
66385;BME280;53426;55.872;37.462;2024-01-10T01:52:45;98072.28;;;-1.08;79.86
66385;BME280;53426;55.872;37.462;2024-01-10T01:55:12;98095.66;;;-0.94;79.45
66385;BME280;53426;55.872;37.462;2024-01-10T01:57:38;98106.78;;;-0.92;79.23
66385;BME280;53426;55.872;37.462;2024-01-10T02:00:05;98110.69;;;-0.99;78.86
66385;BME280;53426;55.872;37.462;2024-01-10T02:02:32;98139.44;;;-1.02;78.70
66385;BME280;53426;55.872;37.462;2024-01-10T02:05:00;98161.69;;;-1.12;78.71
66385;BME280;53426;55.872;37.462;2024-01-10T02:07:27;98150.88;;;-1.35;79.54
66385;BME280;53426;55.872;37.462;2024-01-10T02:09:52;98151.97;;;-1.53;80.07
66385;BME280;53426;55.872;37.462;2024-01-10T02:12:19;98162.78;;;-1.60;80.53
66385;BME280;53426;55.872;37.462;2024-01-10T02:14:45;98186.13;;;-1.60;80.42
66385;BME280;53426;55.872;37.462;2024-01-10T02:17:11;98172.84;;;-1.70;80.42
66385;BME280;53426;55.872;37.462;2024-01-10T02:19:37;98184.66;;;-1.64;80.14
66385;BME280;53426;55.872;37.462;2024-01-10T02:22:03;98207.41;;;-1.70;80.21
66385;BME280;53426;55.872;37.462;2024-01-10T02:24:30;98197.41;;;-1.91;79.40
66385;BME280;53426;55.872;37.462;2024-01-10T02:26:56;98227.09;;;-1.97;78.54
66385;BME280;53426;55.872;37.462;2024-01-10T02:29:22;98226.59;;;-2.03;78.29
66385;BME280;53426;55.872;37.462;2024-01-10T02:31:49;98235.59;;;-2.11;77.87
66385;BME280;53426;55.872;37.462;2024-01-10T02:34:15;98245.72;;;-2.22;77.25
66385;BME280;53426;55.872;37.462;2024-01-10T02:36:41;98247.28;;;-2.35;76.51
66385;BME280;53426;55.872;37.462;2024-01-10T02:39:07;98241.09;;;-2.32;76.22
66385;BME280;53426;55.872;37.462;2024-01-10T02:41:33;98227.84;;;-2.59;76.00
66385;BME280;53426;55.872;37.462;2024-01-10T02:43:59;98274.44;;;-2.42;75.94
66385;BME280;53426;55.872;37.462;2024-01-10T02:46:25;98294.41;;;-2.44;75.36
66385;BME280;53426;55.872;37.462;2024-01-10T02:48:54;98293.38;;;-2.57;74.85
66385;BME280;53426;55.872;37.462;2024-01-10T02:51:21;98307.38;;;-2.61;74.73
66385;BME280;53426;55.872;37.462;2024-01-10T02:53:47;98287.13;;;-2.70;74.73
66385;BME280;53426;55.872;37.462;2024-01-10T02:56:13;98314.78;;;-2.88;74.24
66385;BME280;53426;55.872;37.462;2024-01-10T02:58:39;98327.97;;;-2.92;74.03
66385;BME280;53426;55.872;37.462;2024-01-10T03:01:06;98326.81;;;-3.04;73.96
66385;BME280;53426;55.872;37.462;2024-01-10T03:03:33;98349.25;;;-3.05;73.78
66385;BME280;53426;55.872;37.462;2024-01-10T03:05:58;98362.59;;;-3.12;73.87
66385;BME280;53426;55.872;37.462;2024-01-10T03:08:24;98373.47;;;-3.23;73.14
66385;BME280;53426;55.872;37.462;2024-01-10T03:10:50;98381.63;;;-3.32;72.86
66385;BME280;53426;55.872;37.462;2024-01-10T03:13:16;98357.81;;;-3.57;72.84
66385;BME280;53426;55.872;37.462;2024-01-10T03:15:42;98380.53;;;-3.45;72.76
66385;BME280;53426;55.872;37.462;2024-01-10T03:18:08;98406.16;;;-3.39;72.95
66385;BME280;53426;55.872;37.462;2024-01-10T03:20:34;98418.28;;;-3.41;73.08
66385;BME280;53426;55.872;37.462;2024-01-10T03:23:00;98418.63;;;-3.49;73.09
66385;BME280;53426;55.872;37.462;2024-01-10T03:25:26;98432.53;;;-3.70;72.41
66385;BME280;53426;55.872;37.462;2024-01-10T03:27:52;98414.75;;;-3.96;72.27
66385;BME280;53426;55.872;37.462;2024-01-10T03:30:18;98408.69;;;-4.15;71.83
66385;BME280;53426;55.872;37.462;2024-01-10T03:32:46;98458.69;;;-3.96;71.48
66385;BME280;53426;55.872;37.462;2024-01-10T03:35:12;98470.47;;;-4.09;71.28
66385;BME280;53426;55.872;37.462;2024-01-10T03:37:38;98485.16;;;-4.10;71.68
66385;BME280;53426;55.872;37.462;2024-01-10T03:40:04;98479.44;;;-4.18;71.34
66385;BME280;53426;55.872;37.462;2024-01-10T03:42:30;98492.31;;;-4.16;71.33
66385;BME280;53426;55.872;37.462;2024-01-10T03:44:56;98520.53;;;-4.12;71.14
66385;BME280;53426;55.872;37.462;2024-01-10T03:47:22;98495.97;;;-4.42;70.89
66385;BME280;53426;55.872;37.462;2024-01-10T03:49:48;98534.34;;;-4.33;70.85
66385;BME280;53426;55.872;37.462;2024-01-10T03:52:14;98524.25;;;-4.39;71.00
66385;BME280;53426;55.872;37.462;2024-01-10T03:54:41;98550.78;;;-4.36;71.07
66385;BME280;53426;55.872;37.462;2024-01-10T03:57:13;98560.66;;;-4.45;70.83
66385;BME280;53426;55.872;37.462;2024-01-10T03:59:39;98571.69;;;-4.64;70.48
66385;BME280;53426;55.872;37.462;2024-01-10T04:02:08;98589.94;;;-4.68;70.37
66385;BME280;53426;55.872;37.462;2024-01-10T04:04:37;98569.25;;;-4.90;70.03
66385;BME280;53426;55.872;37.462;2024-01-10T04:07:03;98549.63;;;-5.17;70.32
66385;BME280;53426;55.872;37.462;2024-01-10T04:09:29;98612.56;;;-4.96;70.23
66385;BME280;53426;55.872;37.462;2024-01-10T04:11:55;98597.78;;;-5.16;70.28
66385;BME280;53426;55.872;37.462;2024-01-10T04:14:21;98637.19;;;-5.13;70.39
66385;BME280;53426;55.872;37.462;2024-01-10T04:16:47;98637.38;;;-5.17;70.92
66385;BME280;53426;55.872;37.462;2024-01-10T04:19:14;98631.69;;;-5.27;70.78
66385;BME280;53426;55.872;37.462;2024-01-10T04:21:40;98632.75;;;-5.32;70.69
66385;BME280;53426;55.872;37.462;2024-01-10T04:24:06;98665.06;;;-5.22;70.58
66385;BME280;53426;55.872;37.462;2024-01-10T04:26:32;98667.28;;;-5.36;70.29
66385;BME280;53426;55.872;37.462;2024-01-10T04:29:00;98676.53;;;-5.56;70.55
66385;BME280;53426;55.872;37.462;2024-01-10T04:31:26;98698.00;;;-5.55;70.61
66385;BME280;53426;55.872;37.462;2024-01-10T04:33:55;98708.66;;;-5.66;70.42
66385;BME280;53426;55.872;37.462;2024-01-10T04:36:22;98731.31;;;-5.75;70.05
66385;BME280;53426;55.872;37.462;2024-01-10T04:38:48;98702.03;;;-5.99;69.45
66385;BME280;53426;55.872;37.462;2024-01-10T04:41:14;98735.00;;;-6.10;69.28
66385;BME280;53426;55.872;37.462;2024-01-10T04:43:40;98711.75;;;-6.37;68.85
66385;BME280;53426;55.872;37.462;2024-01-10T04:46:06;98757.53;;;-6.46;68.88
66385;BME280;53426;55.872;37.462;2024-01-10T04:48:38;98748.56;;;-6.62;68.88
66385;BME280;53426;55.872;37.462;2024-01-10T04:51:04;98770.22;;;-6.39;69.40
66385;BME280;53426;55.872;37.462;2024-01-10T04:53:30;98778.19;;;-6.48;68.65
66385;BME280;53426;55.872;37.462;2024-01-10T04:55:56;98785.59;;;-6.37;68.64
66385;BME280;53426;55.872;37.462;2024-01-10T04:58:24;98769.03;;;-6.58;68.29
66385;BME280;53426;55.872;37.462;2024-01-10T05:00:50;98804.31;;;-6.61;67.38
66385;BME280;53426;55.872;37.462;2024-01-10T05:03:16;98812.78;;;-6.90;67.46
66385;BME280;53426;55.872;37.462;2024-01-10T05:05:42;98758.78;;;-7.24;68.06
66385;BME280;53426;55.872;37.462;2024-01-10T05:08:08;98808.81;;;-7.02;68.05
66385;BME280;53426;55.872;37.462;2024-01-10T05:10:33;98809.56;;;-7.32;68.30
66385;BME280;53426;55.872;37.462;2024-01-10T05:12:59;98837.59;;;-7.22;69.05
66385;BME280;53426;55.872;37.462;2024-01-10T05:15:25;98837.59;;;-7.22;69.26
66385;BME280;53426;55.872;37.462;2024-01-10T05:17:51;98819.97;;;-7.37;69.31
66385;BME280;53426;55.872;37.462;2024-01-10T05:20:18;98833.69;;;-7.38;69.26
66385;BME280;53426;55.872;37.462;2024-01-10T05:22:44;98858.44;;;-7.32;70.19
66385;BME280;53426;55.872;37.462;2024-01-10T05:25:10;98853.16;;;-7.28;70.18
66385;BME280;53426;55.872;37.462;2024-01-10T05:27:35;98880.34;;;-7.18;69.76
66385;BME280;53426;55.872;37.462;2024-01-10T05:30:02;98870.06;;;-7.18;69.04
66385;BME280;53426;55.872;37.462;2024-01-10T05:32:30;98889.53;;;-7.07;69.17
66385;BME280;53426;55.872;37.462;2024-01-10T05:34:58;98886.09;;;-7.06;68.50
66385;BME280;53426;55.872;37.462;2024-01-10T05:37:24;98900.56;;;-7.02;68.89
66385;BME280;53426;55.872;37.462;2024-01-10T05:39:49;98884.78;;;-7.23;68.52
66385;BME280;53426;55.872;37.462;2024-01-10T05:42:15;98893.38;;;-7.25;68.83
66385;BME280;53426;55.872;37.462;2024-01-10T05:44:41;98931.69;;;-7.13;69.34
66385;BME280;53426;55.872;37.462;2024-01-10T05:47:07;98927.41;;;-7.12;69.17
66385;BME280;53426;55.872;37.462;2024-01-10T05:49:33;98938.81;;;-7.24;68.77
66385;BME280;53426;55.872;37.462;2024-01-10T05:51:59;98949.22;;;-7.30;68.35
66385;BME280;53426;55.872;37.462;2024-01-10T05:54:25;98960.44;;;-7.33;68.56
66385;BME280;53426;55.872;37.462;2024-01-10T05:56:51;98907.84;;;-7.58;68.66
66385;BME280;53426;55.872;37.462;2024-01-10T05:59:17;98978.94;;;-7.15;68.94
66385;BME280;53426;55.872;37.462;2024-01-10T06:01:43;98928.09;;;-7.43;69.54
66385;BME280;53426;55.872;37.462;2024-01-10T06:04:09;98991.56;;;-7.06;69.50
66385;BME280;53426;55.872;37.462;2024-01-10T06:06:35;99002.59;;;-7.01;68.62
66385;BME280;53426;55.872;37.462;2024-01-10T06:09:01;99001.00;;;-7.07;68.99
66385;BME280;53426;55.872;37.462;2024-01-10T06:11:27;99005.22;;;-7.03;69.06
66385;BME280;53426;55.872;37.462;2024-01-10T06:13:55;99041.34;;;-7.07;68.59
66385;BME280;53426;55.872;37.462;2024-01-10T06:16:20;99043.16;;;-7.12;68.35
66385;BME280;53426;55.872;37.462;2024-01-10T06:18:46;99026.09;;;-7.16;68.67
66385;BME280;53426;55.872;37.462;2024-01-10T06:21:12;99013.25;;;-7.18;68.78
66385;BME280;53426;55.872;37.462;2024-01-10T06:23:38;99044.59;;;-6.99;68.15
66385;BME280;53426;55.872;37.462;2024-01-10T06:26:04;99031.25;;;-7.16;68.07
66385;BME280;53426;55.872;37.462;2024-01-10T06:28:30;99072.16;;;-7.04;68.50
66385;BME280;53426;55.872;37.462;2024-01-10T06:30:56;99079.16;;;-7.12;67.92
66385;BME280;53426;55.872;37.462;2024-01-10T06:33:22;99075.94;;;-7.21;68.53
66385;BME280;53426;55.872;37.462;2024-01-10T06:35:49;99077.78;;;-7.29;68.32
66385;BME280;53426;55.872;37.462;2024-01-10T06:38:14;99062.50;;;-7.36;68.37
66385;BME280;53426;55.872;37.462;2024-01-10T06:40:42;99079.69;;;-7.37;67.60
66385;BME280;53426;55.872;37.462;2024-01-10T06:43:10;99102.63;;;-7.26;67.50
66385;BME280;53426;55.872;37.462;2024-01-10T06:45:36;99098.00;;;-7.53;67.62
66385;BME280;53426;55.872;37.462;2024-01-10T06:48:02;99070.69;;;-7.59;67.54
66385;BME280;53426;55.872;37.462;2024-01-10T06:50:28;99117.50;;;-7.42;67.56
66385;BME280;53426;55.872;37.462;2024-01-10T06:52:56;99117.59;;;-7.48;67.83
66385;BME280;53426;55.872;37.462;2024-01-10T06:55:21;99118.41;;;-7.46;67.49
66385;BME280;53426;55.872;37.462;2024-01-10T06:57:50;99120.06;;;-7.42;67.70
66385;BME280;53426;55.872;37.462;2024-01-10T07:00:22;99131.88;;;-7.33;67.54
66385;BME280;53426;55.872;37.462;2024-01-10T07:02:49;99124.41;;;-7.45;66.87
66385;BME280;53426;55.872;37.462;2024-01-10T07:05:15;99137.06;;;-7.36;67.01
66385;BME280;53426;55.872;37.462;2024-01-10T07:07:41;99135.97;;;-7.23;67.55
66385;BME280;53426;55.872;37.462;2024-01-10T07:10:08;99161.47;;;-7.11;66.93
66385;BME280;53426;55.872;37.462;2024-01-10T07:12:34;99137.50;;;-7.14;66.28
66385;BME280;53426;55.872;37.462;2024-01-10T07:17:55;99165.03;;;-6.75;65.99
66385;BME280;53426;55.872;37.462;2024-01-10T07:20:21;99093.94;;;-7.21;65.82
66385;BME280;53426;55.872;37.462;2024-01-10T07:22:50;99146.66;;;-6.98;65.26
66385;BME280;53426;55.872;37.462;2024-01-10T07:25:17;99135.56;;;-7.03;64.75
66385;BME280;53426;55.872;37.462;2024-01-10T07:27:44;99177.16;;;-6.80;64.19
66385;BME280;53426;55.872;37.462;2024-01-10T07:30:11;99154.06;;;-7.26;64.16
66385;BME280;53426;55.872;37.462;2024-01-10T07:32:43;99109.91;;;-7.49;64.30
66385;BME280;53426;55.872;37.462;2024-01-10T07:35:10;99187.88;;;-7.03;64.67
66385;BME280;53426;55.872;37.462;2024-01-10T07:37:41;99155.22;;;-7.44;64.57
66385;BME280;53426;55.872;37.462;2024-01-10T07:40:18;99103.75;;;-7.88;64.35
66385;BME280;53426;55.872;37.462;2024-01-10T07:42:44;99209.81;;;-7.28;64.81
66385;BME280;53426;55.872;37.462;2024-01-10T07:45:13;99190.50;;;-7.52;64.57
66385;BME280;53426;55.872;37.462;2024-01-10T07:47:39;99213.34;;;-7.35;64.91
66385;BME280;53426;55.872;37.462;2024-01-10T07:50:09;99213.44;;;-7.40;65.10
66385;BME280;53426;55.872;37.462;2024-01-10T07:52:36;99198.97;;;-7.45;64.88
66385;BME280;53426;55.872;37.462;2024-01-10T07:55:03;99219.97;;;-7.21;64.84
66385;BME280;53426;55.872;37.462;2024-01-10T07:57:34;99229.41;;;-7.23;64.42
66385;BME280;53426;55.872;37.462;2024-01-10T08:03:18;99211.47;;;-7.26;63.88
66385;BME280;53426;55.872;37.462;2024-01-10T08:05:45;99192.75;;;-7.34;63.43
66385;BME280;53426;55.872;37.462;2024-01-10T08:08:12;99222.41;;;-7.14;63.58
66385;BME280;53426;55.872;37.462;2024-01-10T08:10:40;99218.66;;;-6.97;63.55
66385;BME280;53426;55.872;37.462;2024-01-10T08:13:06;99216.75;;;-6.87;63.44
66385;BME280;53426;55.872;37.462;2024-01-10T08:15:33;99162.38;;;-7.13;62.61
66385;BME280;53426;55.872;37.462;2024-01-10T08:18:00;99119.06;;;-7.35;62.25
66385;BME280;53426;55.872;37.462;2024-01-10T08:20:32;99220.75;;;-6.71;61.76
66385;BME280;53426;55.872;37.462;2024-01-10T08:22:58;99221.78;;;-6.81;62.11
66385;BME280;53426;55.872;37.462;2024-01-10T08:25:24;99207.50;;;-6.97;62.09
66385;BME280;53426;55.872;37.462;2024-01-10T08:27:51;99221.84;;;-6.84;61.54
66385;BME280;53426;55.872;37.462;2024-01-10T08:30:20;99220.13;;;-6.84;61.24
66385;BME280;53426;55.872;37.462;2024-01-10T08:32:48;99221.00;;;-6.85;61.47
66385;BME280;53426;55.872;37.462;2024-01-10T08:35:15;99206.53;;;-6.90;61.16
66385;BME280;53426;55.872;37.462;2024-01-10T08:37:41;99194.31;;;-6.81;60.83
66385;BME280;53426;55.872;37.462;2024-01-10T08:40:12;99157.63;;;-6.90;60.58
66385;BME280;53426;55.872;37.462;2024-01-10T08:42:41;99223.50;;;-6.39;60.05
66385;BME280;53426;55.872;37.462;2024-01-10T08:45:09;99153.22;;;-6.84;59.97
66385;BME280;53426;55.872;37.462;2024-01-10T08:47:37;99197.78;;;-6.42;60.46
66385;BME280;53426;55.872;37.462;2024-01-10T08:50:05;99200.09;;;-6.28;60.32
66385;BME280;53426;55.872;37.462;2024-01-10T08:52:35;99240.66;;;-5.99;59.47
66385;BME280;53426;55.872;37.462;2024-01-10T08:55:05;99209.47;;;-6.25;59.61
66385;BME280;53426;55.872;37.462;2024-01-10T08:57:33;99249.66;;;-6.17;58.65
66385;BME280;53426;55.872;37.462;2024-01-10T08:59:59;99239.59;;;-6.27;59.64
66385;BME280;53426;55.872;37.462;2024-01-10T09:02:29;99253.34;;;-6.28;60.12
66385;BME280;53426;55.872;37.462;2024-01-10T09:04:55;99233.00;;;-6.42;60.45
66385;BME280;53426;55.872;37.462;2024-01-10T09:07:21;99264.38;;;-6.22;59.77
66385;BME280;53426;55.872;37.462;2024-01-10T09:09:47;99253.50;;;-6.36;59.58
66385;BME280;53426;55.872;37.462;2024-01-10T09:12:13;99249.91;;;-6.29;60.15
66385;BME280;53426;55.872;37.462;2024-01-10T09:14:39;99239.59;;;-6.27;59.63
66385;BME280;53426;55.872;37.462;2024-01-10T09:17:05;99267.47;;;-6.06;60.11
66385;BME280;53426;55.872;37.462;2024-01-10T09:19:32;99275.88;;;-5.98;59.39
66385;BME280;53426;55.872;37.462;2024-01-10T09:21:58;99161.53;;;-6.71;59.26
66385;BME280;53426;55.872;37.462;2024-01-10T09:24:24;99238.50;;;-6.17;58.94
66385;BME280;53426;55.872;37.462;2024-01-10T09:26:53;99190.28;;;-6.51;58.34
66385;BME280;53426;55.872;37.462;2024-01-10T09:29:19;99281.84;;;-5.96;58.40
66385;BME280;53426;55.872;37.462;2024-01-10T09:31:46;99184.38;;;-6.56;58.66
66385;BME280;53426;55.872;37.462;2024-01-10T09:34:12;99263.81;;;-5.96;58.85
66385;BME280;53426;55.872;37.462;2024-01-10T09:36:38;99289.69;;;-5.64;58.63
66385;BME280;53426;55.872;37.462;2024-01-10T09:39:04;99286.00;;;-5.54;58.19
66385;BME280;53426;55.872;37.462;2024-01-10T09:41:37;99169.53;;;-6.06;57.93
66385;BME280;53426;55.872;37.462;2024-01-10T09:44:06;99246.25;;;-5.11;57.08
66385;BME280;53426;55.872;37.462;2024-01-10T09:46:34;99257.81;;;-4.92;56.08
66385;BME280;53426;55.872;37.462;2024-01-10T09:49:03;99237.06;;;-5.23;55.73
66385;BME280;53426;55.872;37.462;2024-01-10T09:51:29;99262.28;;;-4.98;56.13
66385;BME280;53426;55.872;37.462;2024-01-10T09:53:58;99248.41;;;-4.96;56.04
66385;BME280;53426;55.872;37.462;2024-01-10T09:56:25;99284.59;;;-4.03;56.20
66385;BME280;53426;55.872;37.462;2024-01-10T09:58:53;99235.19;;;-2.64;54.40
66385;BME280;53426;55.872;37.462;2024-01-10T10:01:22;99226.22;;;-1.64;50.00
66385;BME280;53426;55.872;37.462;2024-01-10T10:03:49;99266.94;;;-1.44;47.93
66385;BME280;53426;55.872;37.462;2024-01-10T10:06:15;99274.88;;;-2.16;47.80
66385;BME280;53426;55.872;37.462;2024-01-10T10:08:41;99263.06;;;-2.96;49.36
66385;BME280;53426;55.872;37.462;2024-01-10T10:11:12;99259.00;;;-3.55;51.19
66385;BME280;53426;55.872;37.462;2024-01-10T10:13:40;99246.47;;;-3.97;51.34
66385;BME280;53426;55.872;37.462;2024-01-10T10:16:08;99270.94;;;-4.08;51.97
66385;BME280;53426;55.872;37.462;2024-01-10T10:18:39;99259.38;;;-4.55;52.99
66385;BME280;53426;55.872;37.462;2024-01-10T10:23:59;99204.47;;;-4.93;54.03
66385;BME280;53426;55.872;37.462;2024-01-10T10:26:32;99191.44;;;-5.21;54.26
66385;BME280;53426;55.872;37.462;2024-01-10T10:28:59;99274.13;;;-4.91;54.90
66385;BME280;53426;55.872;37.462;2024-01-10T10:31:25;99205.34;;;-5.26;55.09
66385;BME280;53426;55.872;37.462;2024-01-10T10:34:23;99286.56;;;-5.07;55.62
66385;BME280;53426;55.872;37.462;2024-01-10T10:36:49;99281.88;;;-5.25;56.13
66385;BME280;53426;55.872;37.462;2024-01-10T10:39:18;99261.69;;;-5.45;56.13
66385;BME280;53426;55.872;37.462;2024-01-10T10:41:47;99215.66;;;-4.94;56.57
66385;BME280;53426;55.872;37.462;2024-01-10T10:44:15;99256.34;;;-3.54;55.15
66385;BME280;53426;55.872;37.462;2024-01-10T10:46:52;99285.72;;;-3.28;52.01
66385;BME280;53426;55.872;37.462;2024-01-10T10:49:23;99276.09;;;-3.51;51.67
66385;BME280;53426;55.872;37.462;2024-01-10T10:51:52;99256.56;;;-3.88;51.84
66385;BME280;53426;55.872;37.462;2024-01-10T10:54:22;99268.06;;;-4.27;52.66
66385;BME280;53426;55.872;37.462;2024-01-10T10:56:50;99227.50;;;-4.54;52.99
66385;BME280;53426;55.872;37.462;2024-01-10T10:59:18;99250.13;;;-4.33;53.28
66385;BME280;53426;55.872;37.462;2024-01-10T11:01:57;99266.94;;;-4.18;53.39
66385;BME280;53426;55.872;37.462;2024-01-10T11:04:24;99231.34;;;-4.38;53.36
66385;BME280;53426;55.872;37.462;2024-01-10T11:06:50;99273.91;;;-4.20;52.63
66385;BME280;53426;55.872;37.462;2024-01-10T11:09:17;99262.97;;;-4.30;52.58
66385;BME280;53426;55.872;37.462;2024-01-10T11:26:10;99215.97;;;-6.09;56.58
66385;BME280;53426;55.872;37.462;2024-01-10T11:28:56;99236.53;;;-6.06;56.95
66385;BME280;53426;55.872;37.462;2024-01-10T11:31:31;99261.19;;;-5.95;57.33
66385;BME280;53426;55.872;37.462;2024-01-10T11:33:58;99285.84;;;-5.84;56.71
66385;BME280;53426;55.872;37.462;2024-01-10T11:36:28;99173.34;;;-6.61;57.05
66385;BME280;53426;55.872;37.462;2024-01-10T11:38:58;99193.09;;;-6.63;57.15
66385;BME280;53426;55.872;37.462;2024-01-10T11:46:49;99283.19;;;-6.18;57.90
66385;BME280;53426;55.872;37.462;2024-01-10T11:49:16;99279.97;;;-6.29;57.60
66385;BME280;53426;55.872;37.462;2024-01-10T11:51:47;99249.66;;;-6.60;58.11
66385;BME280;53426;55.872;37.462;2024-01-10T11:54:39;99287.41;;;-6.59;58.67
66385;BME280;53426;55.872;37.462;2024-01-10T11:57:11;99276.78;;;-6.85;58.83
66385;BME280;53426;55.872;37.462;2024-01-10T11:59:38;99264.22;;;-7.03;59.20
66385;BME280;53426;55.872;37.462;2024-01-10T12:02:07;99285.44;;;-6.89;59.66
66385;BME280;53426;55.872;37.462;2024-01-10T12:04:34;99283.72;;;-6.89;59.50
66385;BME280;53426;55.872;37.462;2024-01-10T12:07:03;99280.28;;;-6.89;59.47
66385;BME280;53426;55.872;37.462;2024-01-10T12:09:31;99279.41;;;-6.88;59.64
66385;BME280;53426;55.872;37.462;2024-01-10T12:11:58;99270.97;;;-6.96;59.87
66385;BME280;53426;55.872;37.462;2024-01-10T12:14:28;99284.59;;;-6.91;60.22
66385;BME280;53426;55.872;37.462;2024-01-10T12:16:54;99273.72;;;-7.05;59.93
66385;BME280;53426;55.872;37.462;2024-01-10T12:19:20;99269.63;;;-7.19;60.22
66385;BME280;53426;55.872;37.462;2024-01-10T12:21:48;99302.19;;;-7.16;59.81
66385;BME280;53426;55.872;37.462;2024-01-10T12:24:14;99279.81;;;-7.12;61.08
66385;BME280;53426;55.872;37.462;2024-01-10T12:26:49;99234.09;;;-7.44;60.50
66385;BME280;53426;55.872;37.462;2024-01-10T12:29:17;99207.06;;;-7.68;60.66
66385;BME280;53426;55.872;37.462;2024-01-10T12:31:47;99280.94;;;-7.27;60.88
66385;BME280;53426;55.872;37.462;2024-01-10T12:34:13;99215.69;;;-7.71;61.30
66385;BME280;53426;55.872;37.462;2024-01-10T12:36:41;99279.59;;;-7.49;61.33
66385;BME280;53426;55.872;37.462;2024-01-10T12:39:07;99281.31;;;-7.50;61.68
66385;BME280;53426;55.872;37.462;2024-01-10T12:41:33;99274.63;;;-7.60;61.33
66385;BME280;53426;55.872;37.462;2024-01-10T12:44:01;99263.84;;;-7.83;62.13
66385;BME280;53426;55.872;37.462;2024-01-10T12:46:31;99281.66;;;-7.73;62.48
66385;BME280;53426;55.872;37.462;2024-01-10T12:49:22;99276.50;;;-7.70;63.12
66385;BME280;53426;55.872;37.462;2024-01-10T12:51:57;99232.44;;;-8.02;62.93
66385;BME280;53426;55.872;37.462;2024-01-10T12:54:23;99266.22;;;-7.71;63.38
66385;BME280;53426;55.872;37.462;2024-01-10T12:56:52;99242.50;;;-7.88;63.58
66385;BME280;53426;55.872;37.462;2024-01-10T12:59:17;99162.75;;;-8.36;63.52
66385;BME280;53426;55.872;37.462;2024-01-10T13:01:43;99233.09;;;-7.89;63.90
66385;BME280;53426;55.872;37.462;2024-01-10T13:04:10;99094.63;;;-8.58;63.76
66385;BME280;53426;55.872;37.462;2024-01-10T13:06:39;99259.47;;;-7.80;63.49
66385;BME280;53426;55.872;37.462;2024-01-10T13:09:06;99259.63;;;-7.87;64.21
66385;BME280;53426;55.872;37.462;2024-01-10T13:11:32;99220.63;;;-8.17;63.51
66385;BME280;53426;55.872;37.462;2024-01-10T13:13:59;99221.81;;;-8.37;63.55
66385;BME280;53426;55.872;37.462;2024-01-10T13:16:26;99246.63;;;-8.35;64.06
66385;BME280;53426;55.872;37.462;2024-01-10T13:18:52;99258.31;;;-8.16;65.12
66385;BME280;53426;55.872;37.462;2024-01-10T13:21:20;99263.38;;;-8.11;64.13